createdAt,value
2024-01-17T00:00:37.566Z,100102.22
2024-01-17T00:03:47.277Z,100103.16
2024-01-17T00:06:52.395Z,100101.53
2024-01-17T00:10:35.954Z,100094.03
2024-01-17T00:13:40.084Z,100097.53
2024-01-17T00:16:51.616Z,100096.59
2024-01-17T00:20:14.765Z,100098.81
2024-01-17T00:23:40.216Z,100098.19
2024-01-17T00:26:44.537Z,100096.25
2024-01-17T00:29:58.925Z,100101.37
2024-01-17T00:33:04.731Z,100101.25
2024-01-17T00:36:09.901Z,100087.22
2024-01-17T00:39:20.545Z,100096.09
2024-01-17T00:42:24.360Z,100094.94
2024-01-17T00:45:53.031Z,100088.16
2024-01-17T00:49:03.451Z,100093.91
2024-01-17T00:52:26.288Z,100087.09
2024-01-17T00:55:32.648Z,100078.41
2024-01-17T00:58:37.661Z,100084.37
2024-01-17T01:01:42.743Z,100086.12
2024-01-17T01:04:47.193Z,100080.34
2024-01-17T01:07:52.283Z,100076.16
2024-01-17T01:10:56.351Z,100079.88
2024-01-17T01:14:09.077Z,100077.31
2024-01-17T01:17:41.089Z,100077.09
2024-01-17T01:20:46.054Z,100066.44
2024-01-17T01:23:49.451Z,100075.28
2024-01-17T01:26:53.266Z,100075.72
2024-01-17T01:30:38.276Z,100075.41
2024-01-17T01:33:44.122Z,100067.84
2024-01-17T01:37:06.701Z,100069.75
2024-01-17T01:40:13.679Z,100058.13
2024-01-17T01:43:26.345Z,100050.84
2024-01-17T01:46:39.734Z,100051.16
2024-01-17T01:49:51.512Z,100038.56
2024-01-17T01:52:57.812Z,100027.28
2024-01-17T01:56:04.182Z,100031.62
2024-01-17T01:59:09.684Z,100032.44
2024-01-17T02:02:15.726Z,100014.28
2024-01-17T02:05:21.973Z,100001.31
2024-01-17T02:08:30.822Z,99999.28
2024-01-17T02:12:13.302Z,100004.69
2024-01-17T02:15:16.520Z,100002.31
2024-01-17T02:18:22.960Z,100002.44
2024-01-17T02:21:29.184Z,99999.19
2024-01-17T02:24:38.085Z,99991.81
2024-01-17T02:27:52.290Z,99991.63
2024-01-17T02:30:59.851Z,99989.34
2024-01-17T02:34:06.921Z,99990.12
2024-01-17T02:37:14.810Z,99975.63
2024-01-17T02:40:21.846Z,99977.53
2024-01-17T02:43:28.837Z,99974.31
2024-01-17T02:46:33.593Z,99976.88
2024-01-17T02:49:37.483Z,99992.97
2024-01-17T02:52:40.789Z,99985.56
2024-01-17T02:55:44.466Z,99982.03
2024-01-17T02:58:50.457Z,99978.78
2024-01-17T03:01:55.995Z,99979.44
2024-01-17T03:05:07.106Z,99975.84
2024-01-17T03:08:10.702Z,99978.50
2024-01-17T03:11:17.886Z,99980.41
2024-01-17T03:14:21.099Z,99978.78
2024-01-17T03:17:24.449Z,99971.72
2024-01-17T03:20:36.000Z,99973.41
2024-01-17T03:23:39.936Z,99977.00
2024-01-17T03:26:48.004Z,99968.59
2024-01-17T03:29:53.109Z,99968.00
2024-01-17T03:32:56.737Z,99954.66
2024-01-17T03:36:11.955Z,99954.75
2024-01-17T03:39:17.314Z,99952.00
2024-01-17T03:42:24.227Z,99950.09
2024-01-17T03:45:27.631Z,99944.12
2024-01-17T03:48:33.902Z,99934.78
2024-01-17T03:51:38.492Z,99925.47
2024-01-17T03:55:04.269Z,99920.59
2024-01-17T03:58:10.261Z,99924.56
2024-01-17T04:01:17.586Z,99920.75
2024-01-17T04:04:24.693Z,99919.63
2024-01-17T04:07:28.575Z,99926.53
2024-01-17T04:10:36.584Z,99926.88
2024-01-17T04:13:45.968Z,99919.34
2024-01-17T04:16:52.661Z,99924.66
2024-01-17T04:19:58.518Z,99915.63
2024-01-17T04:23:07.641Z,99905.94
2024-01-17T04:26:25.047Z,99910.22
2024-01-17T04:29:33.376Z,99896.03
2024-01-17T04:32:57.016Z,99888.28
2024-01-17T04:36:01.543Z,99869.28
2024-01-17T04:39:24.552Z,99860.59
2024-01-17T04:42:27.928Z,99860.25
2024-01-17T04:45:41.542Z,99854.13
2024-01-17T04:48:46.691Z,99865.75
2024-01-17T04:52:17.654Z,99855.75
2024-01-17T04:55:23.126Z,99853.50
2024-01-17T04:58:32.179Z,99859.97
2024-01-17T05:01:38.960Z,99865.75
2024-01-17T05:04:42.791Z,99857.69
2024-01-17T05:07:46.427Z,99857.03
2024-01-17T05:10:51.473Z,99865.25
2024-01-17T05:13:56.110Z,99872.19
2024-01-17T05:16:59.503Z,99865.09
2024-01-17T05:20:08.134Z,99846.41
2024-01-17T05:23:51.268Z,99854.13
2024-01-17T05:26:58.267Z,99871.56
2024-01-17T05:30:03.587Z,99858.97
2024-01-17T05:33:10.211Z,99850.28
2024-01-17T05:36:15.636Z,99864.44
2024-01-17T05:39:19.968Z,99863.66
2024-01-17T05:42:23.109Z,99865.94
2024-01-17T05:45:29.669Z,99867.84
2024-01-17T05:48:36.145Z,99859.16
2024-01-17T05:51:41.890Z,99842.53
2024-01-17T05:54:45.998Z,99819.81
2024-01-17T05:58:06.719Z,99836.25
2024-01-17T06:01:13.879Z,99847.69
2024-01-17T06:04:18.376Z,99845.38
2024-01-17T06:07:21.497Z,99846.00
2024-01-17T06:10:30.470Z,99823.16
2024-01-17T06:13:33.926Z,99819.09
2024-01-17T06:16:41.058Z,99811.56
2024-01-17T06:19:48.956Z,99826.88
2024-01-17T06:23:52.568Z,99835.13
2024-01-17T06:26:59.202Z,99811.50
2024-01-17T06:30:05.601Z,99825.84
2024-01-17T06:33:15.146Z,99810.91
2024-01-17T06:36:21.575Z,99819.72
2024-01-17T06:39:27.899Z,99834.72
2024-01-17T06:42:31.782Z,99831.00
2024-01-17T06:45:38.864Z,99821.31
2024-01-17T06:48:48.684Z,99819.59
2024-01-17T06:52:08.943Z,99827.31
2024-01-17T06:55:17.847Z,99845.69
2024-01-17T06:58:37.841Z,99839.56
2024-01-17T07:01:45.150Z,99833.63
2024-01-17T07:04:48.071Z,99821.53
2024-01-17T07:07:51.325Z,99811.22
2024-01-17T07:10:55.003Z,99812.03
2024-01-17T07:14:02.041Z,99803.72
2024-01-17T07:17:09.806Z,99811.56
2024-01-17T07:20:13.735Z,99808.22
2024-01-17T07:23:17.043Z,99804.53
2024-01-17T07:26:22.389Z,99800.63
2024-01-17T07:29:24.912Z,99780.81
2024-01-17T07:32:30.026Z,99789.00
2024-01-17T07:35:33.305Z,99794.28
2024-01-17T07:38:38.899Z,99789.91
2024-01-17T07:41:42.008Z,99792.94
2024-01-17T07:44:49.711Z,99778.03
2024-01-17T07:47:52.807Z,99770.59
2024-01-17T07:50:59.268Z,99777.22
2024-01-17T07:54:04.377Z,99763.00
2024-01-17T07:57:09.173Z,99778.47
2024-01-17T08:00:13.230Z,99786.41
2024-01-17T08:03:17.584Z,99785.06
2024-01-17T08:06:25.045Z,99781.50
2024-01-17T08:09:29.446Z,99775.16
2024-01-17T08:12:34.966Z,99781.94
2024-01-17T08:15:43.584Z,99782.41
2024-01-17T08:18:47.461Z,99779.09
2024-01-17T08:21:52.905Z,99769.97
2024-01-17T08:25:00.468Z,99758.59
2024-01-17T08:28:04.856Z,99769.88
2024-01-17T08:31:09.938Z,99764.31
2024-01-17T08:34:15.780Z,99766.75
2024-01-17T08:37:23.597Z,99772.59
2024-01-17T08:40:31.253Z,99773.84
2024-01-17T08:43:40.208Z,99771.78
2024-01-17T08:46:49.637Z,99754.50
2024-01-17T08:50:24.034Z,99759.94
2024-01-17T08:53:32.906Z,99761.06
2024-01-17T08:56:35.893Z,99757.87
2024-01-17T08:59:40.303Z,99747.34
2024-01-17T09:02:44.323Z,99757.06
2024-01-17T09:05:48.627Z,99759.06
2024-01-17T09:08:51.828Z,99754.59
2024-01-17T09:11:55.952Z,99734.44
2024-01-17T09:15:00.715Z,99736.97
2024-01-17T09:18:06.155Z,99722.50
2024-01-17T09:21:14.084Z,99704.88
2024-01-17T09:24:19.118Z,99703.06
2024-01-17T09:27:22.077Z,99689.44
2024-01-17T09:30:28.504Z,99692.50
2024-01-17T09:33:34.443Z,99698.75
2024-01-17T09:36:37.611Z,99693.19
2024-01-17T09:39:40.754Z,99688.09
2024-01-17T09:45:48.757Z,99667.16
2024-01-17T09:48:54.761Z,99659.25
2024-01-17T09:52:06.858Z,99642.94
2024-01-17T09:55:11.580Z,99624.06
2024-01-17T09:58:19.991Z,99607.94
2024-01-17T10:01:29.093Z,99607.75
2024-01-17T10:04:33.165Z,99604.37
2024-01-17T10:07:35.827Z,99605.09
2024-01-17T10:10:40.167Z,99591.16
2024-01-17T10:13:43.506Z,99592.00
2024-01-17T10:16:47.745Z,99591.22
2024-01-17T10:19:51.738Z,99583.19
2024-01-17T10:22:55.225Z,99580.38
2024-01-17T10:25:59.021Z,99568.03
2024-01-17T10:29:22.638Z,99575.50
2024-01-17T10:32:25.713Z,99572.47
2024-01-17T10:35:29.348Z,99554.16
2024-01-17T10:38:34.453Z,99545.56
2024-01-17T10:42:01.966Z,99549.19
2024-01-17T10:45:09.770Z,99538.41
2024-01-17T10:48:33.847Z,99526.38
2024-01-17T10:51:40.076Z,99512.81
2024-01-17T10:55:00.069Z,99505.31
2024-01-17T10:58:24.733Z,99493.31
2024-01-17T11:01:37.991Z,99472.31
2024-01-17T11:05:07.330Z,99464.34
2024-01-17T11:08:18.335Z,99466.53
2024-01-17T11:12:02.660Z,99444.53
2024-01-17T11:15:08.538Z,99446.13
2024-01-17T11:18:16.715Z,99446.94
2024-01-17T11:21:40.817Z,99433.75
2024-01-17T11:25:00.061Z,99414.97
2024-01-17T11:28:07.456Z,99407.75
2024-01-17T11:31:53.042Z,99391.34
2024-01-17T11:35:03.430Z,99396.75
2024-01-17T11:38:07.996Z,99400.16
2024-01-17T11:41:11.569Z,99408.13
2024-01-17T11:44:18.541Z,99386.69
2024-01-17T11:48:33.174Z,99377.94
2024-01-17T11:51:58.588Z,99372.50
2024-01-17T11:55:02.454Z,99362.09
2024-01-17T11:58:06.507Z,99355.69
2024-01-17T12:01:33.145Z,99341.91
2024-01-17T12:04:45.668Z,99343.75
2024-01-17T12:08:14.855Z,99339.94
2024-01-17T12:11:38.609Z,99332.56
2024-01-17T12:14:43.540Z,99326.78
2024-01-17T12:17:59.295Z,99321.81
2024-01-17T12:21:06.253Z,99306.59
2024-01-17T12:24:13.680Z,99297.78
2024-01-17T12:27:19.671Z,99290.16
2024-01-17T12:30:31.439Z,99286.38
2024-01-17T12:33:57.241Z,99274.97
2024-01-17T12:37:01.636Z,99283.78
2024-01-17T12:40:07.629Z,99294.59
2024-01-17T12:43:14.970Z,99263.41
2024-01-17T12:46:19.625Z,99251.41
2024-01-17T12:49:28.713Z,99247.00
2024-01-17T12:52:31.788Z,99242.56
2024-01-17T12:55:36.455Z,99236.59
2024-01-17T12:58:43.482Z,99226.41
2024-01-17T13:01:49.173Z,99229.53
2024-01-17T13:05:14.417Z,99219.94
2024-01-17T13:08:24.457Z,99234.84
2024-01-17T13:11:30.082Z,99232.31
2024-01-17T13:14:35.282Z,99229.22
2024-01-17T13:18:11.029Z,99216.00
2024-01-17T13:22:00.872Z,99217.09
2024-01-17T13:25:24.559Z,99212.09
2024-01-17T13:29:16.327Z,99214.41
2024-01-17T13:32:41.053Z,99210.00
2024-01-17T13:36:08.067Z,99207.25
2024-01-17T13:39:32.899Z,99185.63
2024-01-17T13:43:18.147Z,99186.19
2024-01-17T13:46:45.173Z,99183.97
2024-01-17T13:49:50.866Z,99189.22
2024-01-17T13:53:30.205Z,99183.19
2024-01-17T13:57:33.067Z,99173.94
2024-01-17T14:01:20.638Z,99178.47
2024-01-17T14:04:24.607Z,99174.84
2024-01-17T14:07:48.769Z,99178.19
2024-01-17T14:11:21.014Z,99181.31
2024-01-17T14:15:01.006Z,99166.88
2024-01-17T14:18:35.288Z,99160.25
2024-01-17T14:22:07.275Z,99150.94
2024-01-17T14:25:33.282Z,99149.94
2024-01-17T14:29:09.698Z,99142.97
2024-01-17T14:33:01.615Z,99143.28
2024-01-17T14:36:40.800Z,99142.94
2024-01-17T14:40:18.161Z,99141.19
2024-01-17T14:43:59.261Z,99126.91
2024-01-17T14:47:46.096Z,99119.03
2024-01-17T14:51:27.285Z,99107.22
2024-01-17T14:55:11.761Z,99107.84
2024-01-17T14:58:47.594Z,99110.25
2024-01-17T15:02:20.502Z,99111.41
2024-01-17T15:05:52.448Z,99106.41
2024-01-17T15:09:11.492Z,99097.59
2024-01-17T15:12:40.028Z,99118.97
2024-01-17T15:16:03.717Z,99111.16
2024-01-17T15:19:25.683Z,99111.03
2024-01-17T15:23:08.441Z,99110.50
2024-01-17T15:26:56.160Z,99114.91
2024-01-17T15:41:45.116Z,99069.47
2024-01-17T15:45:14.162Z,99078.94
2024-01-17T15:48:50.254Z,99087.41
2024-01-17T15:52:36.178Z,99089.19
2024-01-17T15:56:09.631Z,99097.00
2024-01-17T15:59:46.176Z,99067.84
2024-01-17T16:03:23.986Z,99062.56
2024-01-17T16:06:54.639Z,99061.91
2024-01-17T16:10:00.221Z,99052.97
2024-01-17T16:13:37.859Z,99057.00
2024-01-17T16:17:12.751Z,99053.22
2024-01-17T16:24:50.767Z,99051.53
2024-01-17T16:28:23.072Z,99048.53
2024-01-17T16:31:54.417Z,99056.28
2024-01-17T16:35:24.556Z,99044.53
2024-01-17T16:39:25.156Z,99033.78
2024-01-17T16:47:09.077Z,99027.44
2024-01-17T16:50:56.497Z,99025.72
2024-01-17T16:54:00.858Z,99024.03
2024-01-17T16:57:24.396Z,99014.78
2024-01-17T17:01:02.917Z,99028.47
2024-01-17T17:04:11.172Z,99026.97
2024-01-17T17:07:55.972Z,99032.87
2024-01-17T17:11:22.585Z,99037.38
2024-01-17T17:14:26.768Z,99035.69
2024-01-17T17:17:32.098Z,99028.06
2024-01-17T17:20:42.828Z,99028.06
2024-01-17T17:23:51.726Z,99020.66
2024-01-17T17:26:57.112Z,99017.44
2024-01-17T17:30:03.030Z,99020.03
2024-01-17T17:33:37.817Z,99016.22
2024-01-17T17:36:41.226Z,99026.47
2024-01-17T17:39:45.194Z,99015.75
2024-01-17T17:42:52.149Z,99010.75
2024-01-17T17:45:59.533Z,99000.59
2024-01-17T17:49:45.141Z,98987.78
2024-01-17T17:53:10.470Z,98984.97
2024-01-17T17:56:18.255Z,98986.50
2024-01-17T17:59:26.460Z,98989.47
2024-01-17T18:02:37.502Z,98984.50
2024-01-17T18:10:11.370Z,98984.53
2024-01-17T18:13:16.656Z,98984.09
2024-01-17T18:16:42.303Z,98981.31
2024-01-17T18:19:47.681Z,98967.75
2024-01-17T18:23:17.962Z,98963.91
2024-01-17T18:27:04.956Z,98953.88
2024-01-17T18:30:11.434Z,98963.25
2024-01-17T18:33:50.061Z,98963.69
2024-01-17T18:37:17.875Z,98956.84
2024-01-17T18:40:23.646Z,98948.03
2024-01-17T18:43:54.513Z,98951.78
2024-01-17T18:47:40.577Z,98947.53
2024-01-17T18:50:45.065Z,98946.47
2024-01-17T18:53:50.342Z,98945.56
2024-01-17T18:56:57.452Z,98939.81
2024-01-17T19:00:13.663Z,98934.22
2024-01-17T19:03:37.124Z,98933.16
2024-01-17T19:06:44.570Z,98940.66
2024-01-17T19:09:55.725Z,98933.81
2024-01-17T19:12:59.983Z,98928.81
2024-01-17T19:16:06.260Z,98933.16
2024-01-17T19:19:29.516Z,98929.19
2024-01-17T19:22:36.526Z,98929.56
2024-01-17T19:25:42.525Z,98920.16
2024-01-17T19:28:47.000Z,98920.16
2024-01-17T19:32:10.096Z,98921.75
2024-01-17T19:35:15.299Z,98908.91
2024-01-17T19:38:21.405Z,98897.16
2024-01-17T19:45:23.756Z,98907.00
2024-01-17T19:48:27.500Z,98899.34
2024-01-17T19:51:31.167Z,98901.16
2024-01-17T19:54:41.252Z,98889.50
2024-01-17T19:58:05.150Z,98889.16
2024-01-17T20:01:09.034Z,98887.91
2024-01-17T20:04:15.957Z,98890.94
2024-01-17T20:07:19.300Z,98888.34
2024-01-17T20:10:23.189Z,98896.34
2024-01-17T20:13:48.537Z,98875.72
2024-01-17T20:16:53.876Z,98878.09
2024-01-17T20:20:05.657Z,98881.16
2024-01-17T20:23:13.657Z,98873.56
2024-01-17T20:26:18.281Z,98867.56
2024-01-17T20:29:27.834Z,98866.25
2024-01-17T20:32:50.737Z,98864.69
2024-01-17T20:35:57.241Z,98853.91
2024-01-17T20:39:23.992Z,98851.91
2024-01-17T20:42:49.297Z,98841.84
2024-01-17T20:46:14.264Z,98849.22
2024-01-17T20:49:22.792Z,98846.78
2024-01-17T20:52:53.774Z,98838.88
2024-01-17T20:56:19.530Z,98828.31
2024-01-17T20:59:25.006Z,98832.44
2024-01-17T21:02:50.962Z,98838.97
2024-01-17T21:05:58.613Z,98832.88
2024-01-17T21:09:24.007Z,98828.13
2024-01-17T21:12:27.219Z,98807.56
2024-01-17T21:15:36.257Z,98820.34
2024-01-17T21:18:57.953Z,98819.19
2024-01-17T21:22:12.780Z,98820.72
2024-01-17T21:25:19.519Z,98815.12
2024-01-17T21:28:23.148Z,98807.78
2024-01-17T21:31:26.817Z,98801.12
2024-01-17T21:34:54.186Z,98797.16
2024-01-17T21:37:57.264Z,98791.50
2024-01-17T21:41:03.179Z,98801.50
2024-01-17T21:44:10.531Z,98782.84
2024-01-17T21:47:16.173Z,98777.75
2024-01-17T21:50:52.833Z,98775.81
2024-01-17T21:54:19.306Z,98772.44
2024-01-17T21:57:25.391Z,98761.34
2024-01-17T22:00:32.035Z,98758.63
2024-01-17T22:03:40.835Z,98753.63
2024-01-17T22:07:07.737Z,98749.59
2024-01-17T22:10:16.864Z,98738.94
2024-01-17T22:13:22.155Z,98734.31
2024-01-17T22:16:47.811Z,98730.38
2024-01-17T22:19:55.518Z,98730.81
2024-01-17T22:23:03.762Z,98727.56
2024-01-17T22:26:07.095Z,98717.91
2024-01-17T22:29:15.907Z,98716.44
2024-01-17T22:32:30.263Z,98705.03
2024-01-17T22:35:35.697Z,98700.94
2024-01-17T22:38:40.870Z,98695.50
2024-01-17T22:42:08.388Z,98676.41
2024-01-17T22:45:11.517Z,98664.28
2024-01-17T22:48:30.922Z,98656.25
2024-01-17T22:51:37.579Z,98648.91
2024-01-17T22:55:12.235Z,98640.31
2024-01-17T22:58:17.280Z,98621.97
2024-01-17T23:01:25.933Z,98614.50
2024-01-17T23:04:32.986Z,98623.00
2024-01-17T23:08:11.633Z,98621.97
2024-01-17T23:11:24.228Z,98625.47
2024-01-17T23:14:55.882Z,98605.53
2024-01-17T23:18:07.500Z,98596.59
2024-01-17T23:21:13.723Z,98589.56
2024-01-17T23:24:23.837Z,98589.00
2024-01-17T23:27:33.330Z,98585.28
2024-01-17T23:30:55.787Z,98579.84
2024-01-17T23:33:59.832Z,98582.91
2024-01-17T23:37:05.391Z,98579.84
2024-01-17T23:40:11.473Z,98582.31
2024-01-17T23:43:17.633Z,98570.91
2024-01-17T23:46:48.487Z,98574.66
2024-01-17T23:50:13.603Z,98563.56
2024-01-17T23:53:20.053Z,98565.31
2024-01-17T23:56:25.156Z,98574.38
2024-01-17T23:59:35.737Z,98557.62
